sensor_id;sensor_type;location;lat;lon;timestamp;P1;durP1;ratioP1;P2;durP2;ratioP2
39314;SDS011;28703;44.412;11.918;2023-03-01T00:00:00;43.63;;;29.88;;
39314;SDS011;28703;44.412;11.918;2023-03-01T00:02:26;48.90;;;31.58;;
39314;SDS011;28703;44.412;11.918;2023-03-01T00:04:52;45.97;;;30.17;;
39314;SDS011;28703;44.412;11.918;2023-03-01T00:07:18;47.72;;;30.45;;
39314;SDS011;28703;44.412;11.918;2023-03-01T00:09:44;44.47;;;28.60;;
39314;SDS011;28703;44.412;11.918;2023-03-01T00:12:11;40.65;;;28.27;;
39314;SDS011;28703;44.412;11.918;2023-03-01T00:14:37;43.15;;;30.30;;
39314;SDS011;28703;44.412;11.918;2023-03-01T00:17:02;38.30;;;27.92;;
39314;SDS011;28703;44.412;11.918;2023-03-01T00:19:28;46.33;;;29.27;;
39314;SDS011;28703;44.412;11.918;2023-03-01T00:21:54;43.63;;;27.95;;
39314;SDS011;28703;44.412;11.918;2023-03-01T00:24:20;38.20;;;27.23;;
39314;SDS011;28703;44.412;11.918;2023-03-01T00:26:46;40.67;;;26.85;;
39314;SDS011;28703;44.412;11.918;2023-03-01T00:29:12;46.25;;;28.90;;
39314;SDS011;28703;44.412;11.918;2023-03-01T00:31:38;43.78;;;26.75;;
39314;SDS011;28703;44.412;11.918;2023-03-01T00:34:04;38.40;;;26.08;;
39314;SDS011;28703;44.412;11.918;2023-03-01T00:36:32;37.38;;;25.52;;
39314;SDS011;28703;44.412;11.918;2023-03-01T00:39:02;36.27;;;26.57;;
39314;SDS011;28703;44.412;11.918;2023-03-01T00:41:29;39.25;;;26.95;;
39314;SDS011;28703;44.412;11.918;2023-03-01T00:43:55;34.22;;;25.95;;
39314;SDS011;28703;44.412;11.918;2023-03-01T00:46:23;44.88;;;26.77;;
39314;SDS011;28703;44.412;11.918;2023-03-01T00:48:51;41.13;;;24.73;;
39314;SDS011;28703;44.412;11.918;2023-03-01T00:51:21;47.60;;;25.92;;
39314;SDS011;28703;44.412;11.918;2023-03-01T00:53:50;40.50;;;26.98;;
39314;SDS011;28703;44.412;11.918;2023-03-01T00:56:18;39.42;;;28.35;;
39314;SDS011;28703;44.412;11.918;2023-03-01T00:58:44;40.80;;;27.98;;
39314;SDS011;28703;44.412;11.918;2023-03-01T01:01:14;35.95;;;25.55;;
39314;SDS011;28703;44.412;11.918;2023-03-01T01:03:51;46.72;;;28.15;;
39314;SDS011;28703;44.412;11.918;2023-03-01T01:06:19;48.92;;;28.15;;
39314;SDS011;28703;44.412;11.918;2023-03-01T01:08:47;38.30;;;26.75;;
39314;SDS011;28703;44.412;11.918;2023-03-01T01:11:14;43.40;;;27.65;;
39314;SDS011;28703;44.412;11.918;2023-03-01T01:13:40;44.90;;;26.63;;
39314;SDS011;28703;44.412;11.918;2023-03-01T01:16:07;40.40;;;27.65;;
39314;SDS011;28703;44.412;11.918;2023-03-01T01:18:34;41.22;;;27.15;;
39314;SDS011;28703;44.412;11.918;2023-03-01T01:21:04;40.35;;;26.85;;
39314;SDS011;28703;44.412;11.918;2023-03-01T01:23:32;39.72;;;27.42;;
39314;SDS011;28703;44.412;11.918;2023-03-01T01:26:02;46.30;;;26.35;;
39314;SDS011;28703;44.412;11.918;2023-03-01T01:28:30;38.60;;;25.30;;
39314;SDS011;28703;44.412;11.918;2023-03-01T01:30:56;43.80;;;27.00;;
39314;SDS011;28703;44.412;11.918;2023-03-01T01:33:22;40.95;;;26.52;;
39314;SDS011;28703;44.412;11.918;2023-03-01T01:35:47;45.55;;;27.50;;
39314;SDS011;28703;44.412;11.918;2023-03-01T01:38:13;36.28;;;25.08;;
39314;SDS011;28703;44.412;11.918;2023-03-01T01:40:46;41.10;;;27.42;;
39314;SDS011;28703;44.412;11.918;2023-03-01T01:43:16;43.22;;;26.30;;
39314;SDS011;28703;44.412;11.918;2023-03-01T01:45:59;38.45;;;25.67;;
39314;SDS011;28703;44.412;11.918;2023-03-01T01:48:32;38.83;;;25.90;;
39314;SDS011;28703;44.412;11.918;2023-03-01T01:51:05;41.70;;;24.75;;
39314;SDS011;28703;44.412;11.918;2023-03-01T01:53:34;43.58;;;25.90;;
39314;SDS011;28703;44.412;11.918;2023-03-01T01:56:01;41.88;;;24.10;;
39314;SDS011;28703;44.412;11.918;2023-03-01T01:58:29;40.75;;;25.52;;
39314;SDS011;28703;44.412;11.918;2023-03-01T02:00:55;35.10;;;24.35;;
39314;SDS011;28703;44.412;11.918;2023-03-01T02:03:26;45.00;;;26.90;;
39314;SDS011;28703;44.412;11.918;2023-03-01T02:06:00;37.65;;;24.63;;
39314;SDS011;28703;44.412;11.918;2023-03-01T02:08:38;40.97;;;24.90;;
39314;SDS011;28703;44.412;11.918;2023-03-01T02:11:07;35.70;;;24.42;;
39314;SDS011;28703;44.412;11.918;2023-03-01T02:13:35;34.55;;;24.38;;
39314;SDS011;28703;44.412;11.918;2023-03-01T02:16:05;38.75;;;23.95;;
39314;SDS011;28703;44.412;11.918;2023-03-01T02:18:34;43.90;;;25.15;;
39314;SDS011;28703;44.412;11.918;2023-03-01T02:23:29;35.17;;;23.92;;
39314;SDS011;28703;44.412;11.918;2023-03-01T02:25:57;34.80;;;23.48;;
39314;SDS011;28703;44.412;11.918;2023-03-01T02:30:59;36.25;;;24.77;;
39314;SDS011;28703;44.412;11.918;2023-03-01T02:33:44;33.85;;;24.67;;
39314;SDS011;28703;44.412;11.918;2023-03-01T02:36:17;32.50;;;22.95;;
39314;SDS011;28703;44.412;11.918;2023-03-01T02:38:47;36.58;;;23.63;;
39314;SDS011;28703;44.412;11.918;2023-03-01T02:41:15;39.28;;;26.17;;
39314;SDS011;28703;44.412;11.918;2023-03-01T02:43:42;37.55;;;24.77;;
39314;SDS011;28703;44.412;11.918;2023-03-01T02:46:14;38.17;;;24.40;;
39314;SDS011;28703;44.412;11.918;2023-03-01T02:48:50;33.47;;;23.98;;
39314;SDS011;28703;44.412;11.918;2023-03-01T02:56:49;40.65;;;25.33;;
39314;SDS011;28703;44.412;11.918;2023-03-01T02:59:22;40.75;;;26.73;;
39314;SDS011;28703;44.412;11.918;2023-03-01T03:01:53;36.83;;;25.88;;
39314;SDS011;28703;44.412;11.918;2023-03-01T03:04:19;38.65;;;25.50;;
39314;SDS011;28703;44.412;11.918;2023-03-01T03:06:49;40.72;;;25.92;;
39314;SDS011;28703;44.412;11.918;2023-03-01T03:09:16;35.95;;;25.30;;
39314;SDS011;28703;44.412;11.918;2023-03-01T03:11:44;36.58;;;26.80;;
39314;SDS011;28703;44.412;11.918;2023-03-01T03:14:11;36.65;;;25.67;;
39314;SDS011;28703;44.412;11.918;2023-03-01T03:16:44;34.78;;;24.88;;
39314;SDS011;28703;44.412;11.918;2023-03-01T03:19:12;36.13;;;25.60;;
39314;SDS011;28703;44.412;11.918;2023-03-01T03:21:38;33.92;;;24.73;;
39314;SDS011;28703;44.412;11.918;2023-03-01T03:24:04;34.45;;;24.17;;
39314;SDS011;28703;44.412;11.918;2023-03-01T03:26:30;35.95;;;25.30;;
39314;SDS011;28703;44.412;11.918;2023-03-01T03:28:57;34.38;;;24.75;;
39314;SDS011;28703;44.412;11.918;2023-03-01T03:31:23;40.10;;;26.50;;
39314;SDS011;28703;44.412;11.918;2023-03-01T03:33:49;34.83;;;24.88;;
39314;SDS011;28703;44.412;11.918;2023-03-01T03:36:16;33.50;;;24.67;;
39314;SDS011;28703;44.412;11.918;2023-03-01T03:38:43;38.97;;;25.08;;
39314;SDS011;28703;44.412;11.918;2023-03-01T03:41:10;37.53;;;25.35;;
39314;SDS011;28703;44.412;11.918;2023-03-01T03:43:37;38.35;;;24.92;;
39314;SDS011;28703;44.412;11.918;2023-03-01T03:46:05;34.28;;;23.35;;
39314;SDS011;28703;44.412;11.918;2023-03-01T03:48:42;39.55;;;25.88;;
39314;SDS011;28703;44.412;11.918;2023-03-01T03:51:10;38.80;;;27.02;;
39314;SDS011;28703;44.412;11.918;2023-03-01T03:53:37;37.25;;;25.05;;
39314;SDS011;28703;44.412;11.918;2023-03-01T03:56:03;31.35;;;24.23;;
39314;SDS011;28703;44.412;11.918;2023-03-01T03:58:29;34.40;;;24.88;;
39314;SDS011;28703;44.412;11.918;2023-03-01T04:00:56;37.15;;;24.08;;
39314;SDS011;28703;44.412;11.918;2023-03-01T04:03:22;38.08;;;25.13;;
39314;SDS011;28703;44.412;11.918;2023-03-01T04:05:50;37.30;;;25.27;;
39314;SDS011;28703;44.412;11.918;2023-03-01T04:08:17;37.05;;;25.05;;
39314;SDS011;28703;44.412;11.918;2023-03-01T04:10:46;38.08;;;25.88;;
39314;SDS011;28703;44.412;11.918;2023-03-01T04:13:14;33.70;;;25.40;;
39314;SDS011;28703;44.412;11.918;2023-03-01T04:15:42;31.77;;;24.45;;
39314;SDS011;28703;44.412;11.918;2023-03-01T04:18:08;35.85;;;24.15;;
39314;SDS011;28703;44.412;11.918;2023-03-01T04:20:37;32.45;;;24.92;;
39314;SDS011;28703;44.412;11.918;2023-03-01T04:25:39;35.25;;;24.48;;
39314;SDS011;28703;44.412;11.918;2023-03-01T04:28:11;34.95;;;23.92;;
39314;SDS011;28703;44.412;11.918;2023-03-01T04:30:37;34.15;;;25.63;;
39314;SDS011;28703;44.412;11.918;2023-03-01T04:33:08;32.42;;;25.17;;
39314;SDS011;28703;44.412;11.918;2023-03-01T04:35:35;34.83;;;24.17;;
39314;SDS011;28703;44.412;11.918;2023-03-01T04:38:02;32.47;;;23.80;;
39314;SDS011;28703;44.412;11.918;2023-03-01T04:40:29;38.55;;;26.10;;
39314;SDS011;28703;44.412;11.918;2023-03-01T04:42:55;36.70;;;24.35;;
39314;SDS011;28703;44.412;11.918;2023-03-01T04:45:20;36.13;;;25.70;;
39314;SDS011;28703;44.412;11.918;2023-03-01T04:47:47;33.40;;;25.55;;
39314;SDS011;28703;44.412;11.918;2023-03-01T04:50:14;37.95;;;26.52;;
39314;SDS011;28703;44.412;11.918;2023-03-01T04:52:42;36.63;;;26.15;;
39314;SDS011;28703;44.412;11.918;2023-03-01T04:55:09;38.67;;;25.85;;
39314;SDS011;28703;44.412;11.918;2023-03-01T04:57:35;36.22;;;25.63;;
39314;SDS011;28703;44.412;11.918;2023-03-01T05:00:02;37.35;;;26.00;;
39314;SDS011;28703;44.412;11.918;2023-03-01T05:05:19;38.65;;;25.33;;
39314;SDS011;28703;44.412;11.918;2023-03-01T05:08:05;36.88;;;26.02;;
39314;SDS011;28703;44.412;11.918;2023-03-01T05:10:33;38.85;;;26.50;;
39314;SDS011;28703;44.412;11.918;2023-03-01T05:13:00;37.55;;;27.73;;
39314;SDS011;28703;44.412;11.918;2023-03-01T05:15:29;34.30;;;24.55;;
39314;SDS011;28703;44.412;11.918;2023-03-01T05:17:56;38.42;;;27.13;;
39314;SDS011;28703;44.412;11.918;2023-03-01T05:20:24;36.83;;;26.13;;
39314;SDS011;28703;44.412;11.918;2023-03-01T05:22:55;36.65;;;26.58;;
39314;SDS011;28703;44.412;11.918;2023-03-01T05:25:23;37.75;;;27.42;;
39314;SDS011;28703;44.412;11.918;2023-03-01T05:27:49;41.63;;;28.85;;
39314;SDS011;28703;44.412;11.918;2023-03-01T05:30:16;37.83;;;27.63;;
39314;SDS011;28703;44.412;11.918;2023-03-01T05:32:47;45.13;;;29.48;;
39314;SDS011;28703;44.412;11.918;2023-03-01T05:35:16;39.47;;;27.35;;
39314;SDS011;28703;44.412;11.918;2023-03-01T05:37:43;44.95;;;28.90;;
39314;SDS011;28703;44.412;11.918;2023-03-01T05:40:12;41.58;;;28.70;;
39314;SDS011;28703;44.412;11.918;2023-03-01T05:42:43;41.00;;;27.67;;
39314;SDS011;28703;44.412;11.918;2023-03-01T05:45:11;39.85;;;28.65;;
39314;SDS011;28703;44.412;11.918;2023-03-01T05:47:38;40.50;;;28.67;;
39314;SDS011;28703;44.412;11.918;2023-03-01T05:50:09;39.47;;;28.48;;
39314;SDS011;28703;44.412;11.918;2023-03-01T05:52:36;39.08;;;27.40;;
39314;SDS011;28703;44.412;11.918;2023-03-01T05:55:02;38.45;;;26.52;;
39314;SDS011;28703;44.412;11.918;2023-03-01T05:57:28;34.67;;;27.08;;
39314;SDS011;28703;44.412;11.918;2023-03-01T05:59:55;41.30;;;27.42;;
39314;SDS011;28703;44.412;11.918;2023-03-01T06:02:20;39.47;;;26.15;;
39314;SDS011;28703;44.412;11.918;2023-03-01T06:04:46;36.38;;;26.70;;
39314;SDS011;28703;44.412;11.918;2023-03-01T06:07:12;37.47;;;28.33;;
39314;SDS011;28703;44.412;11.918;2023-03-01T06:09:38;35.20;;;25.30;;
39314;SDS011;28703;44.412;11.918;2023-03-01T06:12:04;40.95;;;26.52;;
39314;SDS011;28703;44.412;11.918;2023-03-01T06:14:30;41.85;;;27.70;;
39314;SDS011;28703;44.412;11.918;2023-03-01T06:16:57;38.03;;;27.38;;
39314;SDS011;28703;44.412;11.918;2023-03-01T06:19:23;32.83;;;25.10;;
39314;SDS011;28703;44.412;11.918;2023-03-01T06:21:49;37.35;;;27.02;;
39314;SDS011;28703;44.412;11.918;2023-03-01T06:24:15;35.65;;;26.77;;
39314;SDS011;28703;44.412;11.918;2023-03-01T06:26:41;38.85;;;27.45;;
39314;SDS011;28703;44.412;11.918;2023-03-01T06:29:06;38.17;;;26.98;;
39314;SDS011;28703;44.412;11.918;2023-03-01T06:31:33;42.13;;;26.73;;
39314;SDS011;28703;44.412;11.918;2023-03-01T06:33:59;36.28;;;26.35;;
39314;SDS011;28703;44.412;11.918;2023-03-01T06:36:25;42.50;;;27.35;;
39314;SDS011;28703;44.412;11.918;2023-03-01T06:38:51;35.45;;;25.83;;
39314;SDS011;28703;44.412;11.918;2023-03-01T06:41:17;37.75;;;26.58;;
39314;SDS011;28703;44.412;11.918;2023-03-01T06:43:43;41.78;;;26.92;;
39314;SDS011;28703;44.412;11.918;2023-03-01T06:46:11;37.65;;;28.02;;
39314;SDS011;28703;44.412;11.918;2023-03-01T06:48:43;41.83;;;26.23;;
39314;SDS011;28703;44.412;11.918;2023-03-01T06:51:09;42.67;;;26.63;;
39314;SDS011;28703;44.412;11.918;2023-03-01T06:53:34;39.58;;;27.40;;
39314;SDS011;28703;44.412;11.918;2023-03-01T06:56:02;35.10;;;27.63;;
39314;SDS011;28703;44.412;11.918;2023-03-01T06:58:28;36.20;;;26.50;;
39314;SDS011;28703;44.412;11.918;2023-03-01T07:00:55;40.47;;;29.23;;
39314;SDS011;28703;44.412;11.918;2023-03-01T07:03:21;38.72;;;28.13;;
39314;SDS011;28703;44.412;11.918;2023-03-01T07:05:51;36.78;;;27.15;;
39314;SDS011;28703;44.412;11.918;2023-03-01T07:08:17;38.65;;;28.23;;
39314;SDS011;28703;44.412;11.918;2023-03-01T07:10:44;39.30;;;28.10;;
39314;SDS011;28703;44.412;11.918;2023-03-01T07:13:10;36.83;;;26.95;;
39314;SDS011;28703;44.412;11.918;2023-03-01T07:15:39;41.08;;;27.20;;
39314;SDS011;28703;44.412;11.918;2023-03-01T07:18:06;40.45;;;28.05;;
39314;SDS011;28703;44.412;11.918;2023-03-01T07:20:32;41.67;;;28.42;;
39314;SDS011;28703;44.412;11.918;2023-03-01T07:22:57;41.65;;;27.90;;
39314;SDS011;28703;44.412;11.918;2023-03-01T07:25:24;38.95;;;28.25;;
39314;SDS011;28703;44.412;11.918;2023-03-01T07:27:53;42.95;;;26.40;;
39314;SDS011;28703;44.412;11.918;2023-03-01T07:30:20;39.47;;;27.92;;
39314;SDS011;28703;44.412;11.918;2023-03-01T07:32:46;37.65;;;27.98;;
39314;SDS011;28703;44.412;11.918;2023-03-01T07:35:12;41.72;;;28.35;;
39314;SDS011;28703;44.412;11.918;2023-03-01T07:37:40;47.10;;;29.38;;
39314;SDS011;28703;44.412;11.918;2023-03-01T07:40:08;43.38;;;28.88;;
39314;SDS011;28703;44.412;11.918;2023-03-01T07:42:35;49.33;;;28.65;;
39314;SDS011;28703;44.412;11.918;2023-03-01T07:45:05;41.22;;;27.60;;
39314;SDS011;28703;44.412;11.918;2023-03-01T07:47:35;37.35;;;26.55;;
39314;SDS011;28703;44.412;11.918;2023-03-01T07:50:02;45.42;;;28.00;;
39314;SDS011;28703;44.412;11.918;2023-03-01T07:52:29;38.47;;;27.73;;
39314;SDS011;28703;44.412;11.918;2023-03-01T07:54:55;40.05;;;26.40;;
39314;SDS011;28703;44.412;11.918;2023-03-01T07:57:22;38.58;;;27.30;;
39314;SDS011;28703;44.412;11.918;2023-03-01T07:59:48;38.88;;;27.58;;
39314;SDS011;28703;44.412;11.918;2023-03-01T08:02:14;44.03;;;29.17;;
39314;SDS011;28703;44.412;11.918;2023-03-01T08:04:40;39.83;;;27.40;;
39314;SDS011;28703;44.412;11.918;2023-03-01T08:07:07;35.67;;;26.25;;
39314;SDS011;28703;44.412;11.918;2023-03-01T08:09:36;38.47;;;27.80;;
39314;SDS011;28703;44.412;11.918;2023-03-01T08:12:03;40.25;;;27.55;;
39314;SDS011;28703;44.412;11.918;2023-03-01T08:14:30;40.75;;;28.02;;
39314;SDS011;28703;44.412;11.918;2023-03-01T08:16:59;40.10;;;27.48;;
39314;SDS011;28703;44.412;11.918;2023-03-01T08:19:25;41.30;;;27.77;;
39314;SDS011;28703;44.412;11.918;2023-03-01T08:21:53;39.20;;;27.73;;
39314;SDS011;28703;44.412;11.918;2023-03-01T08:24:19;38.72;;;26.88;;
39314;SDS011;28703;44.412;11.918;2023-03-01T08:26:45;43.47;;;28.65;;
39314;SDS011;28703;44.412;11.918;2023-03-01T08:29:10;44.13;;;28.38;;
39314;SDS011;28703;44.412;11.918;2023-03-01T08:31:38;39.90;;;28.50;;
39314;SDS011;28703;44.412;11.918;2023-03-01T08:34:06;41.80;;;29.48;;
39314;SDS011;28703;44.412;11.918;2023-03-01T08:36:38;43.15;;;29.48;;
39314;SDS011;28703;44.412;11.918;2023-03-01T08:39:06;39.88;;;28.30;;
39314;SDS011;28703;44.412;11.918;2023-03-01T08:41:33;44.42;;;29.38;;
39314;SDS011;28703;44.412;11.918;2023-03-01T08:43:59;40.55;;;29.38;;
39314;SDS011;28703;44.412;11.918;2023-03-01T08:46:26;40.97;;;28.52;;
39314;SDS011;28703;44.412;11.918;2023-03-01T08:49:00;38.90;;;27.80;;
39314;SDS011;28703;44.412;11.918;2023-03-01T08:51:29;40.92;;;28.25;;
39314;SDS011;28703;44.412;11.918;2023-03-01T08:53:57;38.30;;;27.73;;
39314;SDS011;28703;44.412;11.918;2023-03-01T08:56:22;42.58;;;29.35;;
39314;SDS011;28703;44.412;11.918;2023-03-01T08:58:48;37.35;;;26.95;;
39314;SDS011;28703;44.412;11.918;2023-03-01T09:01:15;43.40;;;28.30;;
39314;SDS011;28703;44.412;11.918;2023-03-01T09:03:43;39.72;;;28.98;;
39314;SDS011;28703;44.412;11.918;2023-03-01T09:06:09;39.45;;;28.45;;
39314;SDS011;28703;44.412;11.918;2023-03-01T09:08:36;48.65;;;29.85;;
39314;SDS011;28703;44.412;11.918;2023-03-01T09:11:04;47.13;;;29.48;;
39314;SDS011;28703;44.412;11.918;2023-03-01T09:13:31;45.67;;;29.35;;
39314;SDS011;28703;44.412;11.918;2023-03-01T09:15:57;39.08;;;28.58;;
39314;SDS011;28703;44.412;11.918;2023-03-01T09:18:24;40.28;;;29.08;;
39314;SDS011;28703;44.412;11.918;2023-03-01T09:20:50;42.25;;;29.98;;
39314;SDS011;28703;44.412;11.918;2023-03-01T09:23:15;41.33;;;28.77;;
39314;SDS011;28703;44.412;11.918;2023-03-01T09:25:41;43.97;;;30.17;;
39314;SDS011;28703;44.412;11.918;2023-03-01T09:28:09;41.22;;;30.48;;
39314;SDS011;28703;44.412;11.918;2023-03-01T09:30:36;43.42;;;30.55;;
39314;SDS011;28703;44.412;11.918;2023-03-01T09:33:02;46.88;;;29.63;;
39314;SDS011;28703;44.412;11.918;2023-03-01T09:35:30;46.65;;;30.88;;
39314;SDS011;28703;44.412;11.918;2023-03-01T09:37:59;47.72;;;30.85;;
39314;SDS011;28703;44.412;11.918;2023-03-01T09:40:26;62.25;;;33.05;;
39314;SDS011;28703;44.412;11.918;2023-03-01T09:43:14;47.42;;;33.67;;
39314;SDS011;28703;44.412;11.918;2023-03-01T09:45:45;50.05;;;31.45;;
39314;SDS011;28703;44.412;11.918;2023-03-01T09:48:17;49.25;;;33.30;;
39314;SDS011;28703;44.412;11.918;2023-03-01T09:50:47;44.15;;;32.08;;
39314;SDS011;28703;44.412;11.918;2023-03-01T09:53:15;45.80;;;32.78;;
39314;SDS011;28703;44.412;11.918;2023-03-01T09:55:53;44.72;;;31.98;;
39314;SDS011;28703;44.412;11.918;2023-03-01T09:58:39;47.03;;;31.42;;
39314;SDS011;28703;44.412;11.918;2023-03-01T10:06:28;49.83;;;31.25;;
39314;SDS011;28703;44.412;11.918;2023-03-01T10:08:59;46.38;;;31.35;;
39314;SDS011;28703;44.412;11.918;2023-03-01T10:11:55;41.67;;;30.60;;
39314;SDS011;28703;44.412;11.918;2023-03-01T10:20:24;43.22;;;31.50;;
39314;SDS011;28703;44.412;11.918;2023-03-01T10:23:11;45.83;;;31.50;;
39314;SDS011;28703;44.412;11.918;2023-03-01T10:28:26;43.50;;;30.75;;
39314;SDS011;28703;44.412;11.918;2023-03-01T10:31:18;46.80;;;31.48;;
39314;SDS011;28703;44.412;11.918;2023-03-01T10:33:48;47.45;;;31.55;;
39314;SDS011;28703;44.412;11.918;2023-03-01T10:36:22;48.75;;;33.10;;
39314;SDS011;28703;44.412;11.918;2023-03-01T10:38:53;43.85;;;31.33;;
39314;SDS011;28703;44.412;11.918;2023-03-01T10:41:25;45.33;;;31.48;;
39314;SDS011;28703;44.412;11.918;2023-03-01T10:43:56;48.70;;;31.42;;
39314;SDS011;28703;44.412;11.918;2023-03-01T10:46:35;45.13;;;31.50;;
39314;SDS011;28703;44.412;11.918;2023-03-01T10:49:14;46.70;;;31.52;;
39314;SDS011;28703;44.412;11.918;2023-03-01T10:51:43;43.33;;;31.92;;
39314;SDS011;28703;44.412;11.918;2023-03-01T10:54:22;45.58;;;32.08;;
39314;SDS011;28703;44.412;11.918;2023-03-01T10:56:56;47.10;;;31.25;;
39314;SDS011;28703;44.412;11.918;2023-03-01T10:59:30;46.28;;;30.67;;
39314;SDS011;28703;44.412;11.918;2023-03-01T11:05:01;46.78;;;32.15;;
39314;SDS011;28703;44.412;11.918;2023-03-01T11:07:57;45.28;;;30.88;;
39314;SDS011;28703;44.412;11.918;2023-03-01T11:13:08;44.38;;;31.48;;
39314;SDS011;28703;44.412;11.918;2023-03-01T11:16:00;40.78;;;30.25;;
39314;SDS011;28703;44.412;11.918;2023-03-01T11:18:29;42.85;;;31.00;;
39314;SDS011;28703;44.412;11.918;2023-03-01T11:20:57;45.30;;;32.72;;
39314;SDS011;28703;44.412;11.918;2023-03-01T11:23:25;51.75;;;31.02;;
39314;SDS011;28703;44.412;11.918;2023-03-01T11:26:01;43.65;;;30.65;;
39314;SDS011;28703;44.412;11.918;2023-03-01T11:28:32;46.83;;;30.85;;
39314;SDS011;28703;44.412;11.918;2023-03-01T11:31:06;42.63;;;28.73;;
39314;SDS011;28703;44.412;11.918;2023-03-01T11:39:02;38.92;;;29.63;;
39314;SDS011;28703;44.412;11.918;2023-03-01T11:41:42;44.17;;;30.05;;
39314;SDS011;28703;44.412;11.918;2023-03-01T11:44:21;45.65;;;30.20;;
39314;SDS011;28703;44.412;11.918;2023-03-01T11:54:04;43.20;;;30.02;;
39314;SDS011;28703;44.412;11.918;2023-03-01T11:56:54;45.25;;;30.08;;
39314;SDS011;28703;44.412;11.918;2023-03-01T11:59:36;48.92;;;31.00;;
39314;SDS011;28703;44.412;11.918;2023-03-01T12:02:18;43.70;;;30.35;;
39314;SDS011;28703;44.412;11.918;2023-03-01T12:05:16;45.20;;;32.25;;
39314;SDS011;28703;44.412;11.918;2023-03-01T12:27:07;47.40;;;33.03;;
39314;SDS011;28703;44.412;11.918;2023-03-01T12:35:25;46.83;;;31.70;;
39314;SDS011;28703;44.412;11.918;2023-03-01T12:41:13;39.40;;;29.35;;
39314;SDS011;28703;44.412;11.918;2023-03-01T12:49:45;40.83;;;29.48;;
39314;SDS011;28703;44.412;11.918;2023-03-01T12:52:41;39.75;;;29.25;;
39314;SDS011;28703;44.412;11.918;2023-03-01T12:57:55;44.28;;;29.92;;
39314;SDS011;28703;44.412;11.918;2023-03-01T13:03:37;41.78;;;29.58;;
39314;SDS011;28703;44.412;11.918;2023-03-01T13:11:48;36.53;;;28.23;;
39314;SDS011;28703;44.412;11.918;2023-03-01T13:16:46;36.80;;;27.70;;
39314;SDS011;28703;44.412;11.918;2023-03-01T13:21:45;35.15;;;26.33;;
39314;SDS011;28703;44.412;11.918;2023-03-01T13:24:25;34.53;;;25.60;;
39314;SDS011;28703;44.412;11.918;2023-03-01T13:29:59;29.20;;;23.27;;
39314;SDS011;28703;44.412;11.918;2023-03-01T13:32:37;29.80;;;22.90;;
39314;SDS011;28703;44.412;11.918;2023-03-01T13:38:36;35.38;;;22.10;;
39314;SDS011;28703;44.412;11.918;2023-03-01T13:41:11;26.67;;;21.85;;
39314;SDS011;28703;44.412;11.918;2023-03-01T13:43:49;26.92;;;21.63;;
39314;SDS011;28703;44.412;11.918;2023-03-01T13:46:23;24.10;;;20.33;;
39314;SDS011;28703;44.412;11.918;2023-03-01T13:48:50;27.83;;;21.73;;
39314;SDS011;28703;44.412;11.918;2023-03-01T13:51:21;31.70;;;21.85;;
39314;SDS011;28703;44.412;11.918;2023-03-01T13:53:55;28.52;;;22.42;;
39314;SDS011;28703;44.412;11.918;2023-03-01T13:56:24;30.60;;;22.17;;
39314;SDS011;28703;44.412;11.918;2023-03-01T13:58:54;28.85;;;21.98;;
39314;SDS011;28703;44.412;11.918;2023-03-01T14:01:54;27.42;;;22.50;;
39314;SDS011;28703;44.412;11.918;2023-03-01T14:04:23;23.70;;;20.70;;
39314;SDS011;28703;44.412;11.918;2023-03-01T14:06:52;24.50;;;21.40;;
39314;SDS011;28703;44.412;11.918;2023-03-01T14:09:39;25.20;;;20.45;;
39314;SDS011;28703;44.412;11.918;2023-03-01T14:17:54;22.45;;;19.80;;
39314;SDS011;28703;44.412;11.918;2023-03-01T14:20:28;22.42;;;19.48;;
39314;SDS011;28703;44.412;11.918;2023-03-01T14:22:58;22.83;;;20.35;;
39314;SDS011;28703;44.412;11.918;2023-03-01T14:25:34;21.23;;;18.95;;
39314;SDS011;28703;44.412;11.918;2023-03-01T14:28:03;23.48;;;20.38;;
39314;SDS011;28703;44.412;11.918;2023-03-01T14:30:43;24.27;;;20.67;;
39314;SDS011;28703;44.412;11.918;2023-03-01T14:33:28;22.90;;;19.83;;
39314;SDS011;28703;44.412;11.918;2023-03-01T14:36:05;24.17;;;20.70;;
39314;SDS011;28703;44.412;11.918;2023-03-01T14:38:37;24.38;;;20.88;;
39314;SDS011;28703;44.412;11.918;2023-03-01T14:41:21;27.92;;;21.13;;
39314;SDS011;28703;44.412;11.918;2023-03-01T14:46:26;23.15;;;20.00;;
39314;SDS011;28703;44.412;11.918;2023-03-01T14:48:58;23.85;;;20.80;;
39314;SDS011;28703;44.412;11.918;2023-03-01T14:51:50;25.15;;;20.55;;
39314;SDS011;28703;44.412;11.918;2023-03-01T14:54:27;26.80;;;22.75;;
39314;SDS011;28703;44.412;11.918;2023-03-01T14:57:03;25.98;;;21.23;;
39314;SDS011;28703;44.412;11.918;2023-03-01T14:59:29;26.02;;;21.95;;
39314;SDS011;28703;44.412;11.918;2023-03-01T15:01:56;28.90;;;22.38;;
39314;SDS011;28703;44.412;11.918;2023-03-01T15:04:23;27.23;;;21.98;;
39314;SDS011;28703;44.412;11.918;2023-03-01T15:06:51;27.42;;;21.90;;
39314;SDS011;28703;44.412;11.918;2023-03-01T15:09:19;29.17;;;22.95;;
39314;SDS011;28703;44.412;11.918;2023-03-01T15:11:46;27.85;;;22.70;;
39314;SDS011;28703;44.412;11.918;2023-03-01T15:17:36;30.52;;;24.60;;
39314;SDS011;28703;44.412;11.918;2023-03-01T15:20:03;29.05;;;23.70;;
39314;SDS011;28703;44.412;11.918;2023-03-01T15:22:31;38.70;;;23.73;;
39314;SDS011;28703;44.412;11.918;2023-03-01T15:24:58;34.35;;;23.77;;
39314;SDS011;28703;44.412;11.918;2023-03-01T15:27:25;31.00;;;24.77;;
39314;SDS011;28703;44.412;11.918;2023-03-01T15:29:58;29.83;;;25.00;;
39314;SDS011;28703;44.412;11.918;2023-03-01T15:32:29;29.70;;;24.58;;
39314;SDS011;28703;44.412;11.918;2023-03-01T15:34:56;29.30;;;24.33;;
39314;SDS011;28703;44.412;11.918;2023-03-01T15:43:03;34.40;;;27.27;;
39314;SDS011;28703;44.412;11.918;2023-03-01T15:45:31;36.85;;;27.10;;
39314;SDS011;28703;44.412;11.918;2023-03-01T15:48:24;34.25;;;27.85;;
39314;SDS011;28703;44.412;11.918;2023-03-01T15:50:57;36.63;;;28.52;;
39314;SDS011;28703;44.412;11.918;2023-03-01T15:53:24;31.08;;;26.63;;
39314;SDS011;28703;44.412;11.918;2023-03-01T15:55:55;35.88;;;27.23;;
39314;SDS011;28703;44.412;11.918;2023-03-01T15:58:22;31.40;;;27.10;;
39314;SDS011;28703;44.412;11.918;2023-03-01T16:00:49;35.67;;;27.20;;
39314;SDS011;28703;44.412;11.918;2023-03-01T16:03:21;33.22;;;26.27;;
39314;SDS011;28703;44.412;11.918;2023-03-01T16:05:50;30.40;;;26.73;;
39314;SDS011;28703;44.412;11.918;2023-03-01T16:08:17;33.15;;;26.75;;
39314;SDS011;28703;44.412;11.918;2023-03-01T16:10:44;33.97;;;28.25;;
39314;SDS011;28703;44.412;11.918;2023-03-01T16:13:11;34.33;;;28.15;;
39314;SDS011;28703;44.412;11.918;2023-03-01T16:15:37;32.50;;;26.83;;
39314;SDS011;28703;44.412;11.918;2023-03-01T16:18:05;34.95;;;28.17;;
39314;SDS011;28703;44.412;11.918;2023-03-01T16:20:33;36.22;;;26.40;;
39314;SDS011;28703;44.412;11.918;2023-03-01T16:23:03;36.00;;;28.55;;
39314;SDS011;28703;44.412;11.918;2023-03-01T16:25:31;35.42;;;27.45;;